createdAt,value
2023-02-23T00:00:21.073Z,22.05
2023-02-23T00:02:50.789Z,23.50
2023-02-23T00:05:19.753Z,21.45
2023-02-23T00:07:51.030Z,21.80
2023-02-23T00:10:45.545Z,20.40
2023-02-23T00:13:13.846Z,21.85
2023-02-23T00:15:42.178Z,21.05
2023-02-23T00:18:10.470Z,19.92
2023-02-23T00:20:45.209Z,23.23
2023-02-23T00:23:14.956Z,25.77
2023-02-23T00:25:45.589Z,19.35
2023-02-23T00:28:15.119Z,20.25
2023-02-23T00:30:46.575Z,22.02
2023-02-23T00:33:15.145Z,20.35
2023-02-23T00:35:43.958Z,23.23
2023-02-23T00:38:12.718Z,20.98
2023-02-23T00:40:42.800Z,22.90
2023-02-23T00:43:12.402Z,23.95
2023-02-23T00:45:42.205Z,22.30
2023-02-23T00:48:11.309Z,22.50
2023-02-23T00:50:41.763Z,24.42
2023-02-23T00:53:11.609Z,20.92
2023-02-23T00:55:42.376Z,22.23
2023-02-23T00:58:14.005Z,18.38
2023-02-23T01:00:44.843Z,19.67
2023-02-23T01:03:13.164Z,22.42
2023-02-23T01:05:41.458Z,25.27
2023-02-23T01:08:11.122Z,26.33
2023-02-23T01:10:42.743Z,25.08
2023-02-23T01:13:17.430Z,23.23
2023-02-23T01:15:54.848Z,26.00
2023-02-23T01:18:26.249Z,21.45
2023-02-23T01:20:54.629Z,23.25
2023-02-23T01:23:22.954Z,24.35
2023-02-23T01:25:51.288Z,24.42
2023-02-23T01:28:19.510Z,23.02
2023-02-23T01:30:50.423Z,23.35
2023-02-23T01:33:31.143Z,21.77
2023-02-23T01:36:07.671Z,24.52
2023-02-23T01:38:41.531Z,26.27
2023-02-23T01:41:16.414Z,23.05
2023-02-23T01:43:57.219Z,20.95
2023-02-23T01:46:26.150Z,21.25
2023-02-23T01:48:57.481Z,21.20
2023-02-23T01:51:29.208Z,25.95
2023-02-23T01:54:03.464Z,24.42
2023-02-23T01:56:37.700Z,25.88
2023-02-23T01:59:12.173Z,22.00
2023-02-23T02:01:42.347Z,26.10
2023-02-23T02:04:16.374Z,24.67
2023-02-23T02:06:47.344Z,25.67
2023-02-23T02:09:18.552Z,29.60
2023-02-23T02:11:54.141Z,25.85
2023-02-23T02:14:30.708Z,25.00
2023-02-23T02:17:08.512Z,26.08
2023-02-23T02:20:12.722Z,27.90
2023-02-23T02:23:41.869Z,23.92
2023-02-23T02:26:20.851Z,28.25
2023-02-23T02:29:31.608Z,26.35
2023-02-23T02:32:40.348Z,27.00
2023-02-23T02:35:41.818Z,27.25
2023-02-23T02:38:27.864Z,27.45
2023-02-23T02:41:06.866Z,29.70
2023-02-23T02:43:44.610Z,29.33
2023-02-23T02:46:17.625Z,35.75
2023-02-23T02:48:57.592Z,28.98
2023-02-23T02:51:35.004Z,32.80
2023-02-23T02:54:15.542Z,31.42
2023-02-23T02:56:45.764Z,28.88
2023-02-23T02:59:35.364Z,33.33
2023-02-23T03:02:22.533Z,30.63
2023-02-23T03:05:10.204Z,38.33
2023-02-23T03:08:03.517Z,34.20
2023-02-23T03:10:55.365Z,32.55
2023-02-23T03:13:53.743Z,31.00
2023-02-23T03:16:51.813Z,30.17
2023-02-23T03:19:42.214Z,33.30
2023-02-23T03:22:40.121Z,33.15
2023-02-23T03:25:32.243Z,34.63
2023-02-23T03:28:32.579Z,31.33
2023-02-23T03:31:32.616Z,30.77
2023-02-23T03:34:26.882Z,31.10
2023-02-23T03:37:22.455Z,28.75
2023-02-23T03:40:14.695Z,26.85
2023-02-23T03:43:03.814Z,30.10
2023-02-23T03:45:51.703Z,33.83
2023-02-23T03:48:40.564Z,34.17
2023-02-23T03:51:31.641Z,28.25
2023-02-23T03:54:22.245Z,27.15
2023-02-23T03:57:12.099Z,30.25
2023-02-23T04:00:05.802Z,28.77
2023-02-23T04:03:02.632Z,24.92
2023-02-23T04:05:50.239Z,27.48
2023-02-23T04:08:38.628Z,33.47
2023-02-23T04:11:33.185Z,32.53
2023-02-23T04:14:05.143Z,32.72
2023-02-23T04:16:33.652Z,27.65
2023-02-23T04:19:03.131Z,28.98
2023-02-23T04:21:32.363Z,33.72
2023-02-23T04:24:00.874Z,32.08
2023-02-23T04:26:29.390Z,28.73
2023-02-23T04:28:57.742Z,32.28
2023-02-23T04:31:26.863Z,38.83
2023-02-23T04:33:55.613Z,31.52
2023-02-23T04:36:26.825Z,30.90
2023-02-23T04:38:55.393Z,32.50
2023-02-23T04:41:24.962Z,30.70
2023-02-23T04:43:53.581Z,33.88
2023-02-23T04:46:21.981Z,28.83
2023-02-23T04:48:50.318Z,28.77
2023-02-23T04:51:19.074Z,31.05
2023-02-23T04:53:49.155Z,29.15
2023-02-23T04:56:17.859Z,30.05
2023-02-23T04:58:46.143Z,32.60
2023-02-23T05:01:14.593Z,31.27
2023-02-23T05:03:42.868Z,32.75
2023-02-23T05:06:11.954Z,30.75
2023-02-23T05:08:40.506Z,31.52
2023-02-23T05:11:10.858Z,28.90
2023-02-23T05:13:39.805Z,29.40
2023-02-23T05:16:09.118Z,28.83
2023-02-23T05:18:37.750Z,27.48
2023-02-23T05:21:07.892Z,31.92
2023-02-23T05:23:37.770Z,27.40
2023-02-23T05:26:09.542Z,30.33
2023-02-23T05:28:41.212Z,26.83
2023-02-23T05:31:09.854Z,30.13
2023-02-23T05:33:42.469Z,26.30
2023-02-23T05:36:13.230Z,25.52
2023-02-23T05:38:41.931Z,28.00
2023-02-23T05:41:12.196Z,26.15
2023-02-23T05:43:43.225Z,29.05
2023-02-23T05:46:13.378Z,28.83
2023-02-23T05:48:42.707Z,26.73
2023-02-23T05:51:13.533Z,30.33
2023-02-23T05:53:42.860Z,28.45
2023-02-23T05:56:18.192Z,29.80
2023-02-23T05:58:48.200Z,30.23
2023-02-23T06:01:17.780Z,29.45
2023-02-23T06:03:46.547Z,29.25
2023-02-23T06:06:15.422Z,31.15
2023-02-23T06:08:43.826Z,27.35
2023-02-23T06:11:12.776Z,29.50
2023-02-23T06:13:41.236Z,32.00
2023-02-23T06:16:11.193Z,29.02
2023-02-23T06:18:39.643Z,30.75
2023-02-23T06:21:08.007Z,27.90
2023-02-23T06:23:36.334Z,34.53
2023-02-23T06:26:04.557Z,32.50
2023-02-23T06:28:33.255Z,37.13
2023-02-23T06:31:01.510Z,34.22
2023-02-23T06:33:31.448Z,31.10
2023-02-23T06:35:59.725Z,33.63
2023-02-23T06:38:28.110Z,30.58
2023-02-23T06:40:56.299Z,34.97
2023-02-23T06:43:24.728Z,34.58
2023-02-23T06:45:52.972Z,30.58
2023-02-23T06:48:21.377Z,33.00
2023-02-23T06:50:50.848Z,34.80
2023-02-23T06:53:20.198Z,31.20
2023-02-23T06:55:48.379Z,32.17
2023-02-23T06:58:17.640Z,34.78
2023-02-23T07:00:45.836Z,31.98
2023-02-23T07:03:14.254Z,31.10
2023-02-23T07:05:43.270Z,30.58
2023-02-23T07:08:12.982Z,34.33
2023-02-23T07:10:41.179Z,36.30
2023-02-23T07:13:09.525Z,39.65
2023-02-23T07:15:37.960Z,38.00
2023-02-23T07:18:06.380Z,34.72
2023-02-23T07:20:35.515Z,35.53
2023-02-23T07:23:03.906Z,34.47
2023-02-23T07:25:33.407Z,30.83
2023-02-23T07:28:01.743Z,31.33
2023-02-23T07:30:30.040Z,33.72
2023-02-23T07:32:58.447Z,34.47
2023-02-23T07:35:26.881Z,34.30
2023-02-23T07:37:55.900Z,32.60
2023-02-23T07:40:25.420Z,30.73
2023-02-23T07:42:55.335Z,35.13
2023-02-23T07:45:24.825Z,35.95
2023-02-23T07:47:53.114Z,39.78
2023-02-23T07:50:21.385Z,32.72
2023-02-23T07:52:49.802Z,35.95
2023-02-23T07:55:18.265Z,36.67
2023-02-23T07:57:46.559Z,37.67
2023-02-23T08:00:16.890Z,39.33
2023-02-23T08:02:45.307Z,42.53
2023-02-23T08:05:14.024Z,40.83
2023-02-23T08:07:42.244Z,40.30
2023-02-23T08:10:11.969Z,37.83
2023-02-23T08:12:40.345Z,39.13
2023-02-23T08:15:09.696Z,37.22
2023-02-23T08:17:39.939Z,38.35
2023-02-23T08:20:10.329Z,38.47
2023-02-23T08:22:48.897Z,35.17
2023-02-23T08:25:18.811Z,37.25
2023-02-23T08:27:47.641Z,38.65
2023-02-23T08:30:16.685Z,35.03
2023-02-23T08:32:46.698Z,36.13
2023-02-23T08:35:15.335Z,36.17
2023-02-23T08:37:45.884Z,40.42
2023-02-23T08:40:15.727Z,37.25
2023-02-23T08:42:44.037Z,34.75
2023-02-23T08:45:13.302Z,38.03
2023-02-23T08:47:41.584Z,38.47
2023-02-23T08:50:13.449Z,38.25
2023-02-23T08:52:42.396Z,46.92
2023-02-23T08:55:13.852Z,43.85
2023-02-23T08:57:42.050Z,42.08
2023-02-23T09:00:14.347Z,39.83
2023-02-23T09:02:43.506Z,45.22
2023-02-23T09:05:13.304Z,45.38
2023-02-23T09:07:44.872Z,41.75
2023-02-23T09:10:15.266Z,42.97
2023-02-23T09:12:43.534Z,49.33
2023-02-23T09:15:12.881Z,44.08
2023-02-23T09:17:44.834Z,44.22
2023-02-23T09:20:16.395Z,49.40
2023-02-23T09:22:48.691Z,45.50
2023-02-23T09:25:20.454Z,46.97
2023-02-23T09:27:48.722Z,53.70
2023-02-23T09:30:20.581Z,49.53
2023-02-23T09:32:50.062Z,47.33
2023-02-23T09:35:21.919Z,50.53
2023-02-23T09:37:52.225Z,47.58
2023-02-23T09:40:23.990Z,51.17
2023-02-23T09:43:01.522Z,50.78
2023-02-23T09:45:39.850Z,47.47
2023-02-23T09:48:16.723Z,42.13
2023-02-23T09:50:49.918Z,46.95
2023-02-23T09:53:36.921Z,50.58
2023-02-23T09:56:12.960Z,44.15
2023-02-23T09:58:41.659Z,43.40
2023-02-23T10:01:40.998Z,41.47
2023-02-23T10:04:16.414Z,46.35
2023-02-23T10:06:51.264Z,45.72
2023-02-23T10:09:27.742Z,46.25
2023-02-23T10:12:03.827Z,40.15
2023-02-23T10:14:53.318Z,43.78
2023-02-23T10:17:30.371Z,42.55
2023-02-23T10:20:07.847Z,38.15
2023-02-23T10:22:38.953Z,43.35
2023-02-23T10:25:13.012Z,41.40
2023-02-23T10:27:43.842Z,41.03
2023-02-23T10:30:20.415Z,36.08
2023-02-23T10:32:55.260Z,38.60
2023-02-23T10:35:24.614Z,35.90
2023-02-23T10:37:55.585Z,37.38
2023-02-23T10:40:25.739Z,33.88
2023-02-23T10:42:55.363Z,36.17
2023-02-23T10:45:27.454Z,37.60
2023-02-23T10:47:59.884Z,34.42
2023-02-23T10:50:29.972Z,30.05
2023-02-23T10:53:01.479Z,29.50
2023-02-23T10:55:31.560Z,27.60
2023-02-23T10:58:05.494Z,29.40
2023-02-23T11:00:42.331Z,32.05
2023-02-23T11:03:24.425Z,24.05
2023-02-23T11:05:53.730Z,25.02
2023-02-23T11:08:29.199Z,21.90
2023-02-23T11:11:08.304Z,21.60
2023-02-23T11:13:42.651Z,23.25
2023-02-23T11:16:14.150Z,26.45
2023-02-23T11:18:49.614Z,23.33
2023-02-23T11:21:24.317Z,19.92
2023-02-23T11:23:58.472Z,20.00
2023-02-23T11:26:33.860Z,16.92
2023-02-23T11:29:11.008Z,19.65
2023-02-23T11:31:40.714Z,21.98
2023-02-23T11:34:09.207Z,21.13
2023-02-23T11:36:38.714Z,20.35
2023-02-23T11:39:23.506Z,23.10
2023-02-23T11:42:11.633Z,23.05
2023-02-23T11:44:39.932Z,24.02
2023-02-23T11:47:17.226Z,18.38
2023-02-23T11:49:47.628Z,19.55
2023-02-23T11:52:18.441Z,23.65
2023-02-23T11:54:55.525Z,24.02
2023-02-23T11:57:26.059Z,19.02
2023-02-23T11:59:54.941Z,17.63
2023-02-23T12:02:25.303Z,19.17
2023-02-23T12:05:03.342Z,21.30
2023-02-23T12:07:43.006Z,18.13
2023-02-23T12:10:20.077Z,17.80
2023-02-23T12:12:56.665Z,16.42
2023-02-23T12:15:31.210Z,14.60
2023-02-23T12:18:04.983Z,15.02
2023-02-23T12:20:38.646Z,13.45
2023-02-23T12:23:12.137Z,13.52
2023-02-23T12:25:46.585Z,12.88
2023-02-23T12:28:22.186Z,12.50
2023-02-23T12:30:55.864Z,15.23
2023-02-23T12:33:29.997Z,15.38
2023-02-23T12:36:03.074Z,11.13
2023-02-23T12:38:38.436Z,14.15
2023-02-23T12:41:13.694Z,11.98
2023-02-23T12:43:49.304Z,11.93
2023-02-23T12:46:23.071Z,10.63
2023-02-23T12:49:04.041Z,15.50
2023-02-23T12:51:36.493Z,10.75
2023-02-23T12:54:05.736Z,11.25
2023-02-23T12:56:47.488Z,11.80
2023-02-23T12:59:39.055Z,11.95
2023-02-23T13:02:15.597Z,10.82
2023-02-23T13:05:02.398Z,11.25
2023-02-23T13:07:41.845Z,11.77
2023-02-23T13:10:19.916Z,13.05
2023-02-23T13:12:57.850Z,12.02
2023-02-23T13:15:35.722Z,13.88
2023-02-23T13:18:11.496Z,14.48
2023-02-23T13:20:44.876Z,14.85
2023-02-23T13:23:22.232Z,15.15
2023-02-23T13:26:00.544Z,15.63
2023-02-23T13:28:41.178Z,19.42
2023-02-23T13:31:23.632Z,16.55
2023-02-23T13:33:52.905Z,17.70
2023-02-23T13:36:21.905Z,14.85
2023-02-23T13:39:19.325Z,14.50
2023-02-23T13:41:58.472Z,14.48
2023-02-23T13:44:34.976Z,13.15
2023-02-23T13:47:12.824Z,14.93
2023-02-23T13:49:51.145Z,15.82
2023-02-23T13:52:30.356Z,17.23
2023-02-23T13:55:04.430Z,15.15
2023-02-23T13:57:35.431Z,16.10
2023-02-23T14:00:06.066Z,17.10
2023-02-23T14:02:42.064Z,16.30
2023-02-23T14:05:19.375Z,15.75
2023-02-23T14:07:52.294Z,15.35
2023-02-23T14:10:24.133Z,14.18
2023-02-23T14:13:27.259Z,15.93
2023-02-23T14:16:15.348Z,14.30
2023-02-23T14:19:10.990Z,17.80
2023-02-23T14:21:49.789Z,16.50
2023-02-23T14:24:22.233Z,14.80
2023-02-23T14:27:27.610Z,15.77
2023-02-23T14:30:25.268Z,15.52
2023-02-23T14:32:55.616Z,17.38
2023-02-23T14:35:55.978Z,16.55
2023-02-23T14:38:45.655Z,16.33
2023-02-23T14:41:16.078Z,16.30
2023-02-23T14:43:46.337Z,15.32
2023-02-23T14:46:20.671Z,13.63
2023-02-23T14:49:10.294Z,13.13
2023-02-23T14:51:42.423Z,15.15
2023-02-23T14:54:16.170Z,15.02
2023-02-23T14:56:48.594Z,14.10
2023-02-23T14:59:22.036Z,13.20
2023-02-23T15:01:52.622Z,13.00
2023-02-23T15:04:24.133Z,12.63
2023-02-23T15:06:57.155Z,13.60
2023-02-23T15:09:34.439Z,11.23
2023-02-23T15:12:13.818Z,15.27
2023-02-23T15:14:43.633Z,13.50
2023-02-23T15:17:17.514Z,12.98
2023-02-23T15:19:49.898Z,11.95
2023-02-23T15:22:25.995Z,14.13
2023-02-23T15:24:59.774Z,12.20
2023-02-23T15:27:37.052Z,13.15
2023-02-23T15:30:21.792Z,15.68
2023-02-23T15:33:00.000Z,15.55
2023-02-23T15:35:32.226Z,15.15
2023-02-23T15:38:13.713Z,16.40
2023-02-23T15:40:43.912Z,17.95
2023-02-23T15:43:13.088Z,15.48
2023-02-23T15:45:46.608Z,19.00
2023-02-23T15:48:18.639Z,16.27
2023-02-23T15:50:51.036Z,16.90
2023-02-23T15:53:27.371Z,15.65
2023-02-23T15:56:00.752Z,14.98
2023-02-23T15:58:31.788Z,17.70
2023-02-23T16:01:05.996Z,16.38
2023-02-23T16:03:36.993Z,19.40
2023-02-23T16:06:09.497Z,20.58
2023-02-23T16:08:37.718Z,19.85
2023-02-23T16:11:12.335Z,20.63
2023-02-23T16:13:44.679Z,19.45
2023-02-23T16:16:19.475Z,21.67
2023-02-23T16:18:54.196Z,24.52
2023-02-23T16:21:26.068Z,23.67
2023-02-23T16:23:58.272Z,24.23
2023-02-23T16:26:31.090Z,21.08
2023-02-23T16:29:02.017Z,24.92
2023-02-23T16:31:43.847Z,25.67
2023-02-23T16:34:22.457Z,24.92
2023-02-23T16:36:57.716Z,26.35
2023-02-23T16:39:29.330Z,26.90
2023-02-23T16:41:59.650Z,26.70
2023-02-23T16:44:42.949Z,25.52
2023-02-23T16:47:33.340Z,25.38
2023-02-23T16:50:13.712Z,26.05
2023-02-23T16:52:53.597Z,26.88
2023-02-23T16:55:26.150Z,25.00
2023-02-23T16:57:56.640Z,25.83
2023-02-23T17:00:26.864Z,25.27
2023-02-23T17:02:55.676Z,28.98
2023-02-23T17:05:25.561Z,29.48
2023-02-23T17:07:57.511Z,28.02
2023-02-23T17:10:29.409Z,28.17
2023-02-23T17:13:02.345Z,28.55
2023-02-23T17:15:34.790Z,32.20
2023-02-23T17:18:05.610Z,33.40
2023-02-23T17:20:34.716Z,30.65
2023-02-23T17:23:06.403Z,29.60
2023-02-23T17:25:34.709Z,28.52
2023-02-23T17:28:03.854Z,31.77
2023-02-23T17:30:32.584Z,31.80
2023-02-23T17:33:01.903Z,27.70
2023-02-23T17:35:32.571Z,29.45
2023-02-23T17:38:01.580Z,29.08
2023-02-23T17:40:34.508Z,29.50
2023-02-23T17:43:04.610Z,30.90
2023-02-23T17:45:32.942Z,30.20
2023-02-23T17:48:01.244Z,31.88
2023-02-23T17:50:29.768Z,28.45
2023-02-23T17:52:58.658Z,28.80
2023-02-23T17:55:27.350Z,27.90
2023-02-23T18:03:31.905Z,32.95
2023-02-23T18:06:03.338Z,31.15
2023-02-23T18:09:17.145Z,30.80
2023-02-23T18:11:50.220Z,24.95
2023-02-23T18:14:18.812Z,27.88
2023-02-23T18:16:47.814Z,25.27
2023-02-23T18:19:16.391Z,23.15
2023-02-23T18:21:46.572Z,22.27
2023-02-23T18:24:14.949Z,22.42
2023-02-23T18:26:43.610Z,27.05
2023-02-23T18:29:12.167Z,23.77
2023-02-23T18:31:41.239Z,25.35
2023-02-23T18:34:13.425Z,24.27
2023-02-23T18:36:43.852Z,27.90
2023-02-23T18:39:16.733Z,26.23
2023-02-23T18:41:45.948Z,25.73
2023-02-23T18:44:18.959Z,26.83
2023-02-23T18:46:47.661Z,22.73
2023-02-23T18:49:17.566Z,22.13
2023-02-23T18:51:46.374Z,23.52
2023-02-23T18:54:18.999Z,24.48
2023-02-23T18:56:48.819Z,23.90
2023-02-23T18:59:17.586Z,24.13
2023-02-23T19:01:48.017Z,25.73
2023-02-23T19:04:19.887Z,27.15
2023-02-23T19:06:52.346Z,26.48
2023-02-23T19:09:22.509Z,25.05
2023-02-23T19:11:51.445Z,24.75
2023-02-23T19:14:46.465Z,27.60
2023-02-23T19:17:14.627Z,28.00
2023-02-23T19:19:43.349Z,26.55
2023-02-23T19:22:12.071Z,25.58
2023-02-23T19:24:42.482Z,24.80
2023-02-23T19:27:13.174Z,24.90
2023-02-23T19:29:41.741Z,28.98
2023-02-23T19:32:10.409Z,24.67
2023-02-23T19:34:40.052Z,24.02
2023-02-23T19:37:09.182Z,25.60
2023-02-23T19:39:38.140Z,26.27
2023-02-23T19:42:10.088Z,25.25
2023-02-23T19:44:38.833Z,25.17
2023-02-23T19:47:07.571Z,24.08
2023-02-23T19:49:42.221Z,26.55
2023-02-23T19:52:11.195Z,29.02
2023-02-23T19:54:39.977Z,27.92
2023-02-23T19:57:10.199Z,28.35
2023-02-23T19:59:39.128Z,23.65
2023-02-23T20:02:08.165Z,29.08
2023-02-23T20:04:36.926Z,29.15
2023-02-23T20:07:05.626Z,32.20
2023-02-23T20:09:34.432Z,28.60
2023-02-23T20:12:03.025Z,31.00
2023-02-23T20:14:33.740Z,34.28
2023-02-23T20:17:02.887Z,29.73
2023-02-23T20:19:31.798Z,30.63
2023-02-23T20:22:05.457Z,31.65
2023-02-23T20:24:34.042Z,28.20
2023-02-23T20:27:02.565Z,30.17
2023-02-23T20:29:34.081Z,31.00
2023-02-23T20:32:13.532Z,29.90
2023-02-23T20:34:42.303Z,32.00
2023-02-23T20:37:10.882Z,32.13
2023-02-23T20:39:39.890Z,31.92
2023-02-23T20:42:08.252Z,30.55
2023-02-23T20:44:38.374Z,30.73
2023-02-23T20:47:10.132Z,29.75
2023-02-23T20:49:39.293Z,32.00
2023-02-23T20:52:27.941Z,29.60
2023-02-23T20:55:06.385Z,28.98
2023-02-23T20:57:36.040Z,32.30
2023-02-23T21:00:28.337Z,32.83
2023-02-23T21:02:57.197Z,30.38
2023-02-23T21:05:27.612Z,28.77
2023-02-23T21:08:01.392Z,30.92
2023-02-23T21:10:34.086Z,31.55
2023-02-23T21:13:02.999Z,33.55
2023-02-23T21:15:35.202Z,32.03
2023-02-23T21:18:12.099Z,30.73
2023-02-23T21:20:41.854Z,31.20
2023-02-23T21:23:13.105Z,31.08
2023-02-23T21:25:41.628Z,31.35
2023-02-23T21:28:16.599Z,34.78
2023-02-23T21:30:46.982Z,32.58
2023-02-23T21:33:16.595Z,30.77
2023-02-23T21:35:45.234Z,28.23
2023-02-23T21:38:13.631Z,33.00
2023-02-23T21:40:45.693Z,29.13
2023-02-23T21:46:54.565Z,30.88
2023-02-23T21:49:23.305Z,32.85
2023-02-23T21:51:53.997Z,33.03
2023-02-23T21:54:23.737Z,29.38
2023-02-23T21:56:52.288Z,33.28
2023-02-23T21:59:21.256Z,31.10
2023-02-23T22:01:51.308Z,30.67
2023-02-23T22:04:20.365Z,34.10
2023-02-23T22:06:49.124Z,34.47
2023-02-23T22:09:18.515Z,39.53
2023-02-23T22:11:48.673Z,37.50
2023-02-23T22:14:18.178Z,36.00
2023-02-23T22:16:47.621Z,32.33
2023-02-23T22:19:27.712Z,34.70
2023-02-23T22:21:56.556Z,32.40
2023-02-23T22:24:25.620Z,38.30
2023-02-23T22:27:00.277Z,37.70
2023-02-23T22:29:29.007Z,37.42
2023-02-23T22:31:57.982Z,36.25
2023-02-23T22:34:28.575Z,35.28
2023-02-23T22:36:57.316Z,38.10
2023-02-23T22:39:26.304Z,35.25
2023-02-23T22:41:54.987Z,34.97
2023-02-23T22:44:24.017Z,36.80
2023-02-23T22:46:53.339Z,40.78
2023-02-23T22:49:24.177Z,38.25
2023-02-23T22:51:54.200Z,35.63
2023-02-23T22:54:24.372Z,36.80
2023-02-23T22:56:53.227Z,38.65
2023-02-23T22:59:21.729Z,39.70
2023-02-23T23:01:50.690Z,36.72
2023-02-23T23:04:21.999Z,33.47
2023-02-23T23:06:50.731Z,34.45
2023-02-23T23:09:44.629Z,33.13
2023-02-23T23:12:13.343Z,34.25
2023-02-23T23:14:42.068Z,34.63
2023-02-23T23:17:12.383Z,33.17
2023-02-23T23:23:00.842Z,33.70
2023-02-23T23:25:31.180Z,34.53
2023-02-23T23:28:04.790Z,33.80
2023-02-23T23:30:35.236Z,32.33
2023-02-23T23:33:04.372Z,34.40
2023-02-23T23:35:34.323Z,28.23
2023-02-23T23:38:03.043Z,29.80
2023-02-23T23:40:37.493Z,30.42
2023-02-23T23:43:07.668Z,33.15
2023-02-23T23:45:40.592Z,29.08
2023-02-23T23:48:09.509Z,29.42
2023-02-23T23:50:39.606Z,27.70
2023-02-23T23:53:08.710Z,30.35
2023-02-23T23:55:38.372Z,25.83
2023-02-23T23:58:06.926Z,24.25
